Aérodrome :
LOGIN :

S'inscrire | Disclaimer

   EN    FR    IT 

 










Légende :    VFR   VFR Marginal   IFR   IFR Intensif   IFR Très Intensif
Visi : 
Plafond : 
>= 8 km
>= 3000ft
5 à 8 km
1000 à 3000 ft
1500m à 5 km
500 à 1000 ft
800 à 1500m
200 à 500 ft
< 800m
< 200 ft
Symboles :   Orages  Brouillard  Fortes neiges  Fortes précipitations  Vent > 20 kt
SIGMETs :   Divers  Orages  Givrage  Turbulence  Onde Orograph.  Cendres Volcan.






- Altitude de l'aérodrome : 184 ft
- Code IATA : BRU


EBBR - Bruxelles

DERNIER METAR :
  • 151550Z 22013KT 9999 FEW035 07/02 Q1004 NOSIG

METARs EXPIRÉS :
  • 151520Z 22013KT 9999 FEW035 08/02 Q1003 NOSIG
  • 151450Z 22016KT 9999 FEW035 08/02 Q1003 NOSIG
  • 151420Z 22017KT 9999 FEW035 08/02 Q1003 NOSIG
  • 151350Z 22017KT 9999 FEW030 08/03 Q1002 NOSIG
  • 151320Z 23019KT 9999 FEW030 09/03 Q1002 NOSIG

TAF TAF EBBR
Valide du 15 à 12h jusqu'au 16 à 18h UTC


151110Z 1512/1618 22015G25KT 9999 FEW030
BECMG 1516/1518 20009KT
PROB40
TEMPO 1603/1613 BKN008
BECMG 1613/1615 4000 -RA -RADZ SCT004 BKN006
PROB40
TEMPO 1615/1618 2000 RA RADZ BKN004



MET'MAP, la Météo Aéronautique d'un coup d'oeil ! - Copyright ORBIFLY Décembre 2007 - Disclaimer

ORBIFLY MET'MAP TEAM :

Programmation & Développement : Alexandra Zaïnal
Sur une idée originale de : Baudouin d'Aumeries
Assistance à la programmation : Marc-Olivier Méhu
Soutien technique & logistique : Manuel Goepfert

Contact : metmap@orbifly.com




SOURCES & CREDITS :

   NOAA